Time;durP1;ratioP1;P1;durP2;ratioP2;P2;SDS_P1;SDS_P2;PMS_P1;PMS_P2;Temp;Humidity;BMP_temperature;BMP_pressure;BME280_temperature;BME280_humidity;BME280_pressure;Samples;Min_cycle;Max_cycle;Signal;HPM_P1;HPM_P2
2022/12/01 00:01:05;;;;;;;;;;;;;;;22.74;45.47;102613.13;7257175;19;154874;-56
2022/12/01 00:03:32;;;;;;;;;;;;;;;22.77;45.30;102614.53;7258371;19;152658;-56
2022/12/01 00:05:59;;;;;;;;;;;;;;;22.77;45.19;102608.91;7261492;19;154588;-56
2022/12/01 00:08:26;;;;;;;;;;;;;;;22.76;45.15;102613.69;7259810;19;153277;-56
2022/12/01 00:10:53;;;;;;;;;;;;;;;22.77;45.72;102614.53;7256106;19;153091;-55
2022/12/01 00:13:20;;;;;;;;;;;;;;;22.77;45.67;102614.53;7255258;19;154623;-55
2022/12/01 00:15:46;;;;;;;;;;;;;;;22.79;45.53;102612.28;7256301;19;153012;-55
2022/12/01 00:18:13;;;;;;;;;;;;;;;22.78;45.69;102610.59;7259759;19;153857;-56
2022/12/01 00:20:40;;;;;;;;;;;;;;;22.78;45.36;102613.41;7255166;19;153445;-56
2022/12/01 00:23:07;;;;;;;;;;;;;;;22.78;45.57;102605.81;7257368;19;154047;-56
2022/12/01 00:25:33;;;;;;;;;;;;;;;22.79;45.79;102609.47;7256236;19;153464;-56
2022/12/01 00:28:00;;;;;;;;;;;;;;;22.80;45.39;102603.56;7263684;19;155023;-56
2022/12/01 00:30:27;;;;;;;;;;;;;;;22.78;45.35;102594.53;7255029;19;153222;-56
2022/12/01 00:32:53;;;;;;;;;;;;;;;22.79;45.46;102603.84;7256629;19;154840;-56
2022/12/01 00:35:20;;;;;;;;;;;;;;;22.80;45.33;102608.34;7254163;19;153222;-56
2022/12/01 00:37:47;;;;;;;;;;;;;;;22.77;45.81;102598.47;7258078;19;154023;-56
2022/12/01 00:40:13;;;;;;;;;;;;;;;22.77;45.72;102594.81;7255996;19;154533;-56
2022/12/01 00:42:40;;;;;;;;;;;;;;;22.73;45.29;102596.50;7254862;19;153777;-56
2022/12/01 00:45:07;;;;;;;;;;;;;;;22.73;45.36;102588.91;7255990;19;153489;-56
2022/12/01 00:47:34;;;;;;;;;;;;;;;22.71;45.93;102590.31;7255957;19;154624;-55
2022/12/01 00:50:01;;;;;;;;;;;;;;;22.67;45.84;102589.16;7262518;19;153394;-55
2022/12/01 00:52:28;;;;;;;;;;;;;;;22.66;45.88;102587.47;7254373;19;155192;-55
2022/12/01 00:54:55;;;;;;;;;;;;;;;22.65;45.64;102589.44;7255871;19;154415;-55
2022/12/01 00:57:21;;;;;;;;;;;;;;;22.62;45.73;102590.84;7258064;19;153068;-55
2022/12/01 00:59:48;;;;;;;;;;;;;;;22.58;45.61;102586.91;7252973;19;156344;-56
2022/12/01 01:02:15;;;;;;;;;;;;;;;22.52;46.08;102582.41;7257243;19;153237;-55
2022/12/01 01:04:42;;;;;;;;;;;;;;;22.46;46.00;102577.91;7252215;19;154920;-55
2022/12/01 01:07:09;;;;;;;;;;;;;;;22.41;46.37;102580.72;7252773;19;155664;-55
2022/12/01 01:09:35;;;;;;;;;;;;;;;22.35;46.71;102576.19;7256005;19;154419;-55
2022/12/01 01:12:02;;;;;;;;;;;;;;;22.30;46.77;102579.03;7257756;19;153929;-55
2022/12/01 01:14:29;;;;;;;;;;;;;;;22.24;46.86;102566.06;7253692;19;153581;-55
2022/12/01 01:16:55;;;;;;;;;;;;;;;22.24;46.73;102579.31;7256749;19;153459;-55
2022/12/01 01:19:22;;;;;;;;;;;;;;;22.21;46.87;102571.44;7252027;19;153922;-56
2022/12/01 01:21:49;;;;;;;;;;;;;;;22.16;47.25;102578.75;7254932;19;153678;-55
2022/12/01 01:24:16;;;;;;;;;;;;;;;22.14;46.95;102574.50;7253867;19;152185;-55
2022/12/01 01:26:43;;;;;;;;;;;;;;;22.12;47.02;102585.22;7251627;19;155076;-55
2022/12/01 01:29:09;;;;;;;;;;;;;;;22.09;47.26;102580.97;7251487;19;152593;-55
2022/12/01 01:31:36;;;;;;;;;;;;;;;22.07;47.04;102582.38;7255357;19;153600;-55
2022/12/01 01:34:03;;;;;;;;;;;;;;;22.05;47.37;102585.47;7260279;19;155011;-55
2022/12/01 01:36:30;;;;;;;;;;;;;;;22.01;47.92;102587.16;7253918;19;153636;-55
2022/12/01 01:38:57;;;;;;;;;;;;;;;22.02;47.56;102594.50;7252531;19;152512;-55
2022/12/01 01:41:23;;;;;;;;;;;;;;;21.99;47.38;102597.84;7254991;19;153857;-55
2022/12/01 01:43:52;;;;;;;;;;;;;;;21.97;47.93;102593.63;7253635;19;152632;-55
2022/12/01 01:46:23;;;;;;;;;;;;;;;21.97;47.93;102602.06;7252242;19;156877;-56
2022/12/01 01:48:49;;;;;;;;;;;;;;;21.93;47.74;102601.78;7253087;19;153639;-56
2022/12/01 01:51:17;;;;;;;;;;;;;;;21.92;47.93;102611.31;7255496;19;153678;-56
2022/12/01 01:53:45;;;;;;;;;;;;;;;21.90;47.91;102601.44;7261713;19;154798;-56
2022/12/01 01:56:15;;;;;;;;;;;;;;;21.86;48.34;102605.94;7255318;19;154412;-56
2022/12/01 01:58:42;;;;;;;;;;;;;;;21.85;48.47;102593.00;7251119;19;152515;-56
2022/12/01 02:01:09;;;;;;;;;;;;;;;21.85;48.40;102595.81;7253478;19;153671;-56
2022/12/01 02:03:37;;;;;;;;;;;;;;;21.83;48.06;102593.28;7253391;19;154056;-56
2022/12/01 02:06:05;;;;;;;;;;;;;;;21.82;48.37;102601.97;7252390;19;154522;-56
2022/12/01 02:08:33;;;;;;;;;;;;;;;21.80;48.28;102596.66;7255070;19;153677;-56
2022/12/01 02:11:09;;;;;;;;;;;;;;;21.79;47.97;102600.59;7251277;19;154111;-56
2022/12/01 02:13:50;;;;;;;;;;;;;;;21.78;48.32;102598.03;7251407;19;153634;-55
2022/12/01 02:16:37;;;;;;;;;;;;;;;21.74;48.37;102601.41;7260567;19;153233;-56
2022/12/01 02:19:23;;;;;;;;;;;;;;;21.73;48.36;102598.88;7250161;19;154829;-56
2022/12/01 02:22:02;;;;;;;;;;;;;;;21.71;48.73;102592.69;7253687;19;154290;-56
2022/12/01 02:24:28;;;;;;;;;;;;;;;21.70;48.70;102589.03;7253201;19;155794;-56
2022/12/01 02:27:03;;;;;;;;;;;;;;;21.65;48.90;102591.81;7250334;19;153896;-55
2022/12/01 02:29:30;;;;;;;;;;;;;;;21.64;48.82;102594.91;7253877;19;155090;-55
2022/12/01 02:32:05;;;;;;;;;;;;;;;21.62;48.47;102592.34;7253453;19;153617;-57
2022/12/01 02:34:40;;;;;;;;;;;;;;;21.60;48.52;102590.94;7252914;19;155123;-56
2022/12/01 02:37:15;;;;;;;;;;;;;;;21.55;48.66;102594.59;7257674;19;152929;-55
2022/12/01 02:39:47;;;;;;;;;;;;;;;21.51;48.86;102593.44;7268408;19;153118;-56
2022/12/01 02:45:21;;;;;;;;;;;;;;;21.47;49.07;102592.31;7259243;19;153513;-56
2022/12/01 02:47:51;;;;;;;;;;;;;;;21.45;48.70;102594.53;7258019;19;153659;-55
2022/12/01 02:50:19;;;;;;;;;;;;;;;21.41;48.66;102589.75;7253984;19;154256;-55
2022/12/01 02:52:46;;;;;;;;;;;;;;;21.40;49.17;102588.03;7258101;19;153284;-56
2022/12/01 02:55:12;;;;;;;;;;;;;;;21.37;49.09;102586.63;7260200;19;154925;-56
2022/12/01 02:57:39;;;;;;;;;;;;;;;21.35;48.88;102588.03;7258871;19;153311;-56
2022/12/01 03:00:06;;;;;;;;;;;;;;;21.30;48.75;102586.06;7260135;19;153416;-56
2022/12/01 03:02:59;;;;;;;;;;;;;;;21.30;48.86;102586.88;7266659;19;154565;-55
2022/12/01 03:05:28;;;;;;;;;;;;;;;21.27;49.16;102575.34;7256893;19;155436;-56
2022/12/01 03:07:56;;;;;;;;;;;;;;;21.26;49.13;102580.09;7257365;19;154528;-55
2022/12/01 03:10:25;;;;;;;;;;;;;;;21.23;48.82;102572.22;7259043;19;152943;-56
2022/12/01 03:12:55;;;;;;;;;;;;;;;21.19;49.33;102568.28;7260608;19;153874;-58
2022/12/01 03:15:24;;;;;;;;;;;;;;;21.19;49.17;102575.88;7256267;19;153183;-56
2022/12/01 03:17:57;;;;;;;;;;;;;;;21.18;49.22;102577.81;7259682;19;153062;-56
2022/12/01 03:20:33;;;;;;;;;;;;;;;21.16;49.50;102576.44;7258015;19;153211;-56
2022/12/01 03:23:07;;;;;;;;;;;;;;;21.12;49.36;102578.06;7257559;19;153679;-55
2022/12/01 03:25:35;;;;;;;;;;;;;;;21.11;49.67;102576.38;7265908;19;154444;-55
2022/12/01 03:28:04;;;;;;;;;;;;;;;21.07;49.48;102569.59;7253781;19;155843;-56
2022/12/01 03:30:51;;;;;;;;;;;;;;;21.05;49.39;102569.00;7258938;19;154646;-56
2022/12/01 03:33:22;;;;;;;;;;;;;;;21.04;49.41;102561.69;7262445;19;154714;-55
2022/12/01 03:36:04;;;;;;;;;;;;;;;21.02;49.54;102570.41;7257621;19;153651;-56
2022/12/01 03:38:36;;;;;;;;;;;;;;;21.00;49.38;102566.16;7259114;19;154280;-56
2022/12/01 03:41:11;;;;;;;;;;;;;;;20.97;49.72;102564.75;7258430;19;156404;-55
2022/12/01 03:43:40;;;;;;;;;;;;;;;20.94;49.78;102561.66;7257234;19;153992;-56
2022/12/01 03:46:13;;;;;;;;;;;;;;;20.92;50.04;102563.88;7258309;19;154869;-55
2022/12/01 03:48:40;;;;;;;;;;;;;;;20.90;49.98;102566.09;7260871;19;153386;-55
2022/12/01 03:51:26;;;;;;;;;;;;;;;20.88;50.14;102566.38;7256003;19;153854;-56
2022/12/01 03:54:06;;;;;;;;;;;;;;;20.85;49.86;102566.91;7249149;19;154931;-56
2022/12/01 03:56:37;;;;;;;;;;;;;;;20.82;50.09;102570.28;7256398;19;155850;-56
2022/12/01 03:59:07;;;;;;;;;;;;;;;20.81;50.05;102580.66;7256637;19;154989;-55
2022/12/01 04:01:34;;;;;;;;;;;;;;;20.80;50.17;102578.97;7257342;19;152908;-55
2022/12/01 04:04:11;;;;;;;;;;;;;;;20.80;50.35;102570.53;7255394;19;154036;-56
2022/12/01 04:06:39;;;;;;;;;;;;;;;20.75;50.18;102576.16;7258208;19;153291;-55
2022/12/01 04:09:05;;;;;;;;;;;;;;;20.74;50.23;102576.41;7263921;19;154523;-55
2022/12/01 04:14:17;;;;;;;;;;;;;;;20.72;50.36;102595.47;7257470;19;154252;-55
2022/12/01 04:16:44;;;;;;;;;;;;;;;20.68;50.31;102594.31;7255988;19;154322;-55
2022/12/01 04:19:10;;;;;;;;;;;;;;;20.67;50.66;102596.28;7256259;19;153999;-55
2022/12/01 04:21:37;;;;;;;;;;;;;;;20.66;50.62;102593.78;7258100;19;153482;-55
2022/12/01 04:24:03;;;;;;;;;;;;;;;20.63;50.89;102597.09;7257818;19;155696;-56
2022/12/01 04:26:34;;;;;;;;;;;;;;;20.62;50.96;102610.31;7255330;19;153155;-55
2022/12/01 04:29:07;;;;;;;;;;;;;;;20.61;50.51;102605.81;7253933;19;154750;-55
2022/12/01 04:31:34;;;;;;;;;;;;;;;20.59;50.52;102610.84;7262540;19;154727;-56
2022/12/01 04:34:01;;;;;;;;;;;;;;;20.59;50.49;102610.84;7256078;19;154416;-56
2022/12/01 04:36:32;;;;;;;;;;;;;;;20.58;50.67;102609.13;7255834;19;156014;-55
2022/12/01 04:38:58;;;;;;;;;;;;;;;20.56;50.93;102610.53;7257396;19;152942;-56
2022/12/01 04:41:25;;;;;;;;;;;;;;;20.55;50.90;102614.44;7257344;19;155214;-55
2022/12/01 04:43:53;;;;;;;;;;;;;;;20.53;51.24;102622.31;7254043;19;156085;-55
2022/12/01 04:46:20;;;;;;;;;;;;;;;20.49;51.22;102623.97;7256850;19;154083;-55
2022/12/01 04:48:47;;;;;;;;;;;;;;;20.48;51.33;102625.91;7253481;19;153521;-55
2022/12/01 04:51:13;;;;;;;;;;;;;;;20.47;51.09;102623.38;7253592;19;154092;-55
2022/12/01 04:53:40;;;;;;;;;;;;;;;20.46;50.87;102632.91;7263828;19;154208;-55
2022/12/01 04:56:07;;;;;;;;;;;;;;;20.44;51.07;102632.34;7255523;19;153782;-55
2022/12/01 04:58:36;;;;;;;;;;;;;;;20.41;51.02;102633.69;7253680;19;154128;-56
2022/12/01 05:01:04;;;;;;;;;;;;;;;20.43;50.99;102637.09;7254489;19;155195;-55
2022/12/01 05:03:31;;;;;;;;;;;;;;;20.42;51.18;102632.59;7255762;19;154185;-55
2022/12/01 05:06:06;;;;;;;;;;;;;;;20.39;50.84;102638.75;7255551;19;154259;-55
2022/12/01 05:08:35;;;;;;;;;;;;;;;20.36;50.96;102631.69;7253954;19;155581;-55
2022/12/01 05:11:01;;;;;;;;;;;;;;;20.36;51.05;102630.84;7255185;19;154443;-55
2022/12/01 05:13:28;;;;;;;;;;;;;;;20.35;50.97;102632.78;7255372;19;154098;-55
2022/12/01 05:16:15;;;;;;;;;;;;;;;20.33;50.94;102634.19;7262074;19;153980;-56
2022/12/01 05:18:42;;;;;;;;;;;;;;;20.36;51.07;102630.84;7254008;19;152473;-55
2022/12/01 05:21:09;;;;;;;;;;;;;;;20.33;51.23;102634.19;7256442;19;154569;-54
2022/12/01 05:23:37;;;;;;;;;;;;;;;20.37;50.76;102627.78;7254294;19;154336;-54
2022/12/01 05:26:05;;;;;;;;;;;;;;;20.44;50.90;102621.97;7256074;19;154370;-55
2022/12/01 05:28:32;;;;;;;;;;;;;;;20.54;51.33;102619.22;7250588;19;153335;-55
2022/12/01 05:30:59;;;;;;;;;;;;;;;20.64;50.82;102619.31;7254309;19;153764;-54
2022/12/01 05:33:26;;;;;;;;;;;;;;;20.72;51.23;102629.19;7257496;19;154136;-55
2022/12/01 05:35:53;;;;;;;;;;;;;;;20.76;51.40;102622.75;7253340;19;152653;-55
2022/12/01 05:38:20;;;;;;;;;;;;;;;20.81;51.50;102633.19;7260895;19;153590;-58
2022/12/01 05:40:50;;;;;;;;;;;;;;;20.82;51.62;102629.28;7251816;19;154595;-55
2022/12/01 05:43:18;;;;;;;;;;;;;;;20.86;51.50;102631.28;7253713;19;154962;-55
2022/12/01 05:45:50;;;;;;;;;;;;;;;20.91;51.89;102632.41;7251757;19;153375;-55
2022/12/01 05:48:17;;;;;;;;;;;;;;;20.96;51.63;102635.28;7254558;19;153830;-55
2022/12/01 05:50:47;;;;;;;;;;;;;;;20.99;51.94;102641.19;7251735;19;153177;-55
2022/12/01 05:53:14;;;;;;;;;;;;;;;21.04;52.40;102630.00;7255447;19;153690;-56
2022/12/01 05:55:41;;;;;;;;;;;;;;;21.09;52.10;102641.25;7253414;19;154577;-56
2022/12/01 05:58:08;;;;;;;;;;;;;;;21.13;52.22;102642.44;7250761;19;152725;-55
2022/12/01 06:00:35;;;;;;;;;;;;;;;21.18;51.86;102650.06;7261564;19;153021;-55
2022/12/01 06:03:10;;;;;;;;;;;;;;;21.23;52.28;102647.28;7253448;19;154346;-55
2022/12/01 06:05:37;;;;;;;;;;;;;;;21.27;52.07;102649.28;7254156;19;153541;-55
2022/12/01 06:08:04;;;;;;;;;;;;;;;21.31;51.58;102649.56;7255946;19;153350;-55
2022/12/01 06:10:30;;;;;;;;;;;;;;;21.36;51.62;102651.56;7252616;19;153987;-56
2022/12/01 06:12:57;;;;;;;;;;;;;;;21.41;51.91;102648.78;7256212;19;152936;-56
2022/12/01 06:15:24;;;;;;;;;;;;;;;21.45;51.68;102652.75;7253780;19;154144;-56
2022/12/01 06:17:50;;;;;;;;;;;;;;;21.49;51.83;102651.94;7254505;19;154155;-56
2022/12/01 06:20:17;;;;;;;;;;;;;;;21.53;51.58;102655.88;7260443;19;154250;-56
2022/12/01 06:22:43;;;;;;;;;;;;;;;21.56;51.55;102658.16;7254380;19;154075;-56
2022/12/01 06:25:10;;;;;;;;;;;;;;;21.61;51.48;102658.19;7253199;19;153834;-56
2022/12/01 06:27:37;;;;;;;;;;;;;;;21.65;51.10;102659.34;7251956;19;153607;-56
2022/12/01 06:30:04;;;;;;;;;;;;;;;21.71;51.25;102654.59;7252606;19;154268;-56
2022/12/01 06:32:30;;;;;;;;;;;;;;;21.74;50.89;102656.84;7254756;19;153865;-56
2022/12/01 06:34:57;;;;;;;;;;;;;;;21.79;50.52;102644.75;7253072;19;154902;-55
2022/12/01 06:37:25;;;;;;;;;;;;;;;21.84;50.72;102650.41;7252431;19;153443;-55
2022/12/01 06:39:52;;;;;;;;;;;;;;;21.88;50.72;102654.34;7255653;19;153942;-55
2022/12/01 06:42:18;;;;;;;;;;;;;;;21.91;50.18;102648.16;7258608;19;153605;-55
2022/12/01 06:44:45;;;;;;;;;;;;;;;21.94;50.13;102654.13;7254104;19;152810;-56
2022/12/01 06:47:12;;;;;;;;;;;;;;;21.98;50.09;102666.53;7251636;19;155001;-55
2022/12/01 06:49:38;;;;;;;;;;;;;;;22.01;49.95;102654.72;7248853;19;155559;-55
2022/12/01 06:52:05;;;;;;;;;;;;;;;22.02;49.57;102642.34;7253161;19;154160;-56
2022/12/01 06:54:32;;;;;;;;;;;;;;;22.05;49.64;102650.22;7254463;19;153779;-56
2022/12/01 06:56:59;;;;;;;;;;;;;;;22.09;49.28;102642.06;7250472;19;154965;-55
2022/12/01 06:59:26;;;;;;;;;;;;;;;22.11;49.27;102649.13;7252792;19;153423;-56
2022/12/01 07:01:56;;;;;;;;;;;;;;;22.13;48.82;102652.47;7252818;19;153563;-56
2022/12/01 07:04:25;;;;;;;;;;;;;;;22.16;48.97;102654.75;7259408;19;153253;-56
2022/12/01 07:06:53;;;;;;;;;;;;;;;22.18;48.58;102652.50;7252012;19;153545;-56
2022/12/01 07:09:20;;;;;;;;;;;;;;;22.21;48.22;102658.72;7249561;19;154770;-56
2022/12/01 07:11:47;;;;;;;;;;;;;;;22.23;48.34;102662.06;7249576;19;153295;-56
2022/12/01 07:14:21;;;;;;;;;;;;;;;22.25;48.59;102665.47;7252379;19;154715;-56
2022/12/01 07:16:48;;;;;;;;;;;;;;;22.26;48.72;102667.19;7250694;19;155031;-56
2022/12/01 07:19:15;;;;;;;;;;;;;;;22.28;48.93;102665.75;7252187;19;153057;-55
2022/12/01 07:21:42;;;;;;;;;;;;;;;22.35;49.25;102671.13;7251500;19;153938;-56
2022/12/01 07:24:09;;;;;;;;;;;;;;;22.33;49.09;102679.84;7258522;19;154944;-56
2022/12/01 07:26:37;;;;;;;;;;;;;;;22.35;48.41;102683.22;7264816;19;153455;-56
2022/12/01 07:29:04;;;;;;;;;;;;;;;22.38;48.50;102679.88;7255833;19;153748;-56
2022/12/01 07:31:31;;;;;;;;;;;;;;;22.42;47.86;102680.16;7259120;19;153319;-56
2022/12/01 07:33:58;;;;;;;;;;;;;;;22.46;43.13;102687.75;7259395;19;153529;-57
2022/12/01 07:36:25;;;;;;;;;;;;;;;22.31;38.86;102696.16;7256153;19;154759;-57
2022/12/01 07:38:51;;;;;;;;;;;;;;;22.09;40.62;102692.72;7257421;19;154231;-57
2022/12/01 07:41:18;;;;;;;;;;;;;;;22.13;41.23;102696.69;7258925;19;153387;-57
2022/12/01 07:43:46;;;;;;;;;;;;;;;22.17;41.36;102703.44;7257369;19;153561;-57
2022/12/01 07:46:18;;;;;;;;;;;;;;;22.20;42.04;102700.09;7253928;19;153620;-56
2022/12/01 07:48:49;;;;;;;;;;;;;;;22.20;41.97;102705.72;7264026;19;154081;-57
2022/12/01 07:51:16;;;;;;;;;;;;;;;22.21;41.82;102709.41;7256302;19;154882;-57
2022/12/01 07:53:45;;;;;;;;;;;;;;;22.20;42.27;102714.19;7256524;19;152163;-58
2022/12/01 07:56:12;;;;;;;;;;;;;;;22.18;42.00;102710.78;7255775;19;155239;-57
2022/12/01 07:58:40;;;;;;;;;;;;;;;22.16;42.14;102705.44;7255523;19;152296;-57
2022/12/01 08:01:09;;;;;;;;;;;;;;;22.15;42.55;102705.72;7260797;19;154094;-56
2022/12/01 08:03:36;;;;;;;;;;;;;;;22.12;42.11;102695.81;7257106;19;153728;-57
2022/12/01 08:06:03;;;;;;;;;;;;;;;22.12;42.38;102701.47;7257508;19;153864;-56
2022/12/01 08:08:42;;;;;;;;;;;;;;;22.10;42.58;102706.53;7257721;19;153623;-57
2022/12/01 08:11:11;;;;;;;;;;;;;;;22.08;42.40;102702.28;7263709;19;154045;-56
2022/12/01 08:13:38;;;;;;;;;;;;;;;22.08;42.29;102700.31;7256903;19;155567;-56
2022/12/01 08:16:05;;;;;;;;;;;;;;;22.07;42.59;102711.88;7255560;19;155520;-56
2022/12/01 08:18:37;;;;;;;;;;;;;;;22.07;42.12;102709.06;7258420;19;153692;-57
2022/12/01 08:21:04;;;;;;;;;;;;;;;22.05;42.46;102723.41;7258413;19;153780;-57
2022/12/01 08:23:31;;;;;;;;;;;;;;;22.06;42.16;102722.28;7255972;19;154729;-56
2022/12/01 08:26:02;;;;;;;;;;;;;;;22.06;42.90;102727.06;7257640;19;152813;-59
2022/12/01 08:28:36;;;;;;;;;;;;;;;22.05;43.21;102719.75;7255934;19;153234;-57
2022/12/01 08:31:15;;;;;;;;;;;;;;;22.06;43.51;102721.44;7266212;19;155787;-57
2022/12/01 08:33:42;;;;;;;;;;;;;;;22.04;43.25;102726.50;7261140;19;152863;-56
2022/12/01 08:36:09;;;;;;;;;;;;;;;22.01;42.96;102724.22;7262657;19;153095;-54
2022/12/01 08:38:37;;;;;;;;;;;;;;;22.00;42.77;102728.16;7262539;19;153651;-56
2022/12/01 08:41:06;;;;;;;;;;;;;;;22.00;42.60;102730.97;7263190;19;153714;-56
2022/12/01 08:43:32;;;;;;;;;;;;;;;21.99;42.72;102730.13;7257745;19;155125;-56
2022/12/01 08:46:19;;;;;;;;;;;;;;;21.97;42.71;102728.72;7257281;19;153325;-56
2022/12/01 08:48:46;;;;;;;;;;;;;;;21.95;42.47;102726.19;7255995;19;155758;-56
2022/12/01 08:51:14;;;;;;;;;;;;;;;21.93;42.56;102725.63;7257540;19;154425;-60
2022/12/01 08:53:45;;;;;;;;;;;;;;;21.90;42.43;102719.63;7267594;19;154573;-57
2022/12/01 08:56:14;;;;;;;;;;;;;;;21.91;42.45;102732.59;7254952;19;155939;-56
2022/12/01 08:58:40;;;;;;;;;;;;;;;21.88;42.34;102730.34;7259164;19;153515;-56
2022/12/01 09:01:08;;;;;;;;;;;;;;;21.85;42.62;102728.91;7254717;19;154812;-56
2022/12/01 09:03:36;;;;;;;;;;;;;;;21.85;42.27;102723.28;7254257;19;155873;-56
2022/12/01 09:06:19;;;;;;;;;;;;;;;21.85;42.72;102722.47;7256719;19;152600;-56
2022/12/01 09:08:46;;;;;;;;;;;;;;;21.84;42.68;102720.75;7257433;19;153908;-55
2022/12/01 09:11:13;;;;;;;;;;;;;;;21.83;42.63;102719.91;7252921;19;154578;-56
2022/12/01 09:13:40;;;;;;;;;;;;;;;21.82;42.85;102714.53;7255155;19;154043;-55
2022/12/01 09:16:12;;;;;;;;;;;;;;;21.82;42.85;102717.34;7262467;19;154198;-56
2022/12/01 09:18:39;;;;;;;;;;;;;;;21.84;42.62;102717.94;7258393;19;155081;-57
2022/12/01 09:21:09;;;;;;;;;;;;;;;21.85;42.76;102722.47;7257357;19;154595;-57
2022/12/01 09:23:36;;;;;;;;;;;;;;;21.86;42.57;102724.97;7254992;19;154397;-57
2022/12/01 09:26:03;;;;;;;;;;;;;;;21.88;42.78;102736.81;7255251;19;154902;-57
2022/12/01 09:28:39;;;;;;;;;;;;;;;21.86;42.84;102727.78;7255923;19;153667;-57
2022/12/01 09:31:07;;;;;;;;;;;;;;;21.89;42.52;102734.84;7252470;19;154413;-57
2022/12/01 09:33:35;;;;;;;;;;;;;;;21.89;42.52;102732.03;7261305;19;153165;-57
2022/12/01 09:36:03;;;;;;;;;;;;;;;21.90;42.69;102742.16;7256517;19;154256;-57
2022/12/01 09:38:36;;;;;;;;;;;;;;;21.90;42.44;102739.34;7265406;19;154189;-57
2022/12/01 09:41:19;;;;;;;;;;;;;;;21.91;42.33;102741.03;7256854;19;155013;-57
2022/12/01 09:43:49;;;;;;;;;;;;;;;21.92;42.53;102745.56;7256399;19;154117;-57
2022/12/01 09:46:20;;;;;;;;;;;;;;;21.92;42.49;102746.41;7252361;19;152776;-57
2022/12/01 09:48:48;;;;;;;;;;;;;;;21.91;42.60;102747.50;7256862;19;153747;-57
2022/12/01 09:51:16;;;;;;;;;;;;;;;21.92;42.57;102754.00;7253425;19;153861;-57
2022/12/01 09:53:43;;;;;;;;;;;;;;;21.92;42.19;102754.00;7255503;19;153863;-57
2022/12/01 09:56:17;;;;;;;;;;;;;;;21.92;42.08;102751.19;7256152;19;153399;-57
2022/12/01 09:58:44;;;;;;;;;;;;;;;21.91;42.27;102758.78;7253884;19;153676;-57
2022/12/01 10:01:16;;;;;;;;;;;;;;;21.92;41.98;102751.19;7261683;19;153624;-56
2022/12/01 10:03:48;;;;;;;;;;;;;;;21.92;42.02;102765.25;7254893;19;154074;-57
2022/12/01 10:06:18;;;;;;;;;;;;;;;21.89;42.16;102763.84;7255956;19;154643;-57
2022/12/01 10:08:57;;;;;;;;;;;;;;;21.89;42.34;102763.84;7258757;19;153722;-57
2022/12/01 10:11:26;;;;;;;;;;;;;;;21.89;41.90;102768.63;7253704;19;153874;-56
2022/12/01 10:13:53;;;;;;;;;;;;;;;21.88;41.92;102755.66;7253936;19;153495;-57
2022/12/01 10:16:27;;;;;;;;;;;;;;;21.88;42.13;102764.09;7255153;19;153457;-57
2022/12/01 10:19:00;;;;;;;;;;;;;;;21.88;41.83;102767.78;7253404;19;153415;-57
2022/12/01 10:21:47;;;;;;;;;;;;;;;21.87;42.10;102762.41;7263204;19;154496;-57
2022/12/01 10:24:17;;;;;;;;;;;;;;;21.86;42.11;102757.91;7254809;19;154143;-58
2022/12/01 10:27:07;;;;;;;;;;;;;;;21.84;42.22;102757.34;7252380;19;153554;-57
2022/12/01 10:29:43;;;;;;;;;;;;;;;21.83;41.92;102766.91;7254469;19;153489;-57
2022/12/01 10:32:22;;;;;;;;;;;;;;;21.81;42.06;102758.72;7253454;19;153564;-57
2022/12/01 10:34:48;;;;;;;;;;;;;;;21.80;41.75;102770.25;7253533;19;154005;-57
2022/12/01 10:37:23;;;;;;;;;;;;;;;21.78;41.74;102762.09;7255094;19;152434;-57
2022/12/01 10:39:50;;;;;;;;;;;;;;;21.77;42.15;102756.72;7257492;19;155002;-57
2022/12/01 10:42:23;;;;;;;;;;;;;;;21.77;41.70;102745.47;7255310;19;153598;-57
2022/12/01 10:44:52;;;;;;;;;;;;;;;21.76;41.81;102746.59;7259815;19;154366;-57
2022/12/01 10:47:21;;;;;;;;;;;;;;;21.74;41.75;102744.06;7252134;19;154059;-57
2022/12/01 10:49:48;;;;;;;;;;;;;;;21.71;41.77;102733.38;7251894;19;155582;-57
2022/12/01 10:52:41;;;;;;;;;;;;;;;21.70;41.84;102735.31;7252863;19;155155;-57
2022/12/01 10:55:27;;;;;;;;;;;;;;;21.68;42.09;102733.88;7252495;19;154888;-57
2022/12/01 10:57:56;;;;;;;;;;;;;;;21.65;42.01;102723.19;7258697;19;153851;-57
2022/12/01 11:00:23;;;;;;;;;;;;;;;21.62;41.83;102718.13;7258901;19;154443;-57
2022/12/01 11:03:21;;;;;;;;;;;;;;;21.60;41.85;102714.72;7259394;19;154185;-57
2022/12/01 11:05:53;;;;;;;;;;;;;;;21.57;41.78;102704.88;7260480;19;154450;-57
2022/12/01 11:08:43;;;;;;;;;;;;;;;21.55;41.85;102707.09;7267056;19;153483;-57
2022/12/01 11:11:39;;;;;;;;;;;;;;;21.52;41.82;102702.03;7257117;19;154014;-57
2022/12/01 11:14:15;;;;;;;;;;;;;;;21.51;42.27;102693.84;7258093;19;154647;-57
2022/12/01 11:16:44;;;;;;;;;;;;;;;21.48;42.14;102700.88;7259842;19;151901;-57
2022/12/01 11:19:25;;;;;;;;;;;;;;;21.45;42.19;102687.34;7262372;19;153539;-56
2022/12/01 11:21:55;;;;;;;;;;;;;;;21.42;42.42;102692.66;7262233;19;153840;-58
2022/12/01 11:24:24;;;;;;;;;;;;;;;21.41;42.51;102685.34;7261634;19;153953;-57
2022/12/01 11:26:51;;;;;;;;;;;;;;;21.37;42.39;102682.25;7258941;19;153445;-55
2022/12/01 11:29:34;;;;;;;;;;;;;;;21.35;42.64;102683.66;7259037;19;153961;-56
2022/12/01 11:32:14;;;;;;;;;;;;;;;21.33;42.52;102681.09;7272249;19;153584;-56
2022/12/01 11:34:46;;;;;;;;;;;;;;;21.31;42.58;102680.50;7257357;19;155958;-56
2022/12/01 11:37:15;;;;;;;;;;;;;;;21.29;42.97;102677.13;7257597;19;153222;-57
2022/12/01 11:39:43;;;;;;;;;;;;;;;21.27;42.99;102687.78;7259820;19;152810;-57
2022/12/01 11:42:12;;;;;;;;;;;;;;;21.24;42.84;102677.94;7258943;19;153846;-56
2022/12/01 11:44:46;;;;;;;;;;;;;;;21.21;43.16;102672.03;7259708;19;153638;-57
2022/12/01 11:47:21;;;;;;;;;;;;;;;21.18;43.07;102666.94;7257451;19;154651;-57
2022/12/01 11:49:57;;;;;;;;;;;;;;;21.16;43.16;102663.56;7259410;19;153865;-56
2022/12/01 11:52:23;;;;;;;;;;;;;;;21.12;43.10;102648.31;7260422;19;153834;-57
2022/12/01 11:54:54;;;;;;;;;;;;;;;21.10;43.34;102642.97;7269952;19;154200;-57
2022/12/01 11:57:21;;;;;;;;;;;;;;;21.08;43.48;102638.72;7260722;19;153303;-56
2022/12/01 12:00:16;;;;;;;;;;;;;;;21.08;43.13;102627.47;7259063;19;155016;-57
2022/12/01 12:03:03;;;;;;;;;;;;;;;21.05;43.40;102628.03;7258802;19;154153;-57
2022/12/01 12:05:39;;;;;;;;;;;;;;;21.02;43.16;102618.19;7198264;19;156987;-57
2022/12/01 12:08:13;;;;;;;;;;;;;;;21.01;43.44;102624.91;7249459;19;153545;-57
2022/12/01 12:10:42;;;;;;;;;;;;;;;20.99;43.51;102617.84;7252100;19;154472;-57
2022/12/01 12:13:09;;;;;;;;;;;;;;;20.98;43.67;102616.19;7252640;19;153503;-57
2022/12/01 12:15:38;;;;;;;;;;;;;;;20.97;43.48;102614.50;7257818;19;152760;-57
2022/12/01 12:18:05;;;;;;;;;;;;;;;20.95;43.91;102611.09;7267358;19;155221;-56
2022/12/01 12:20:42;;;;;;;;;;;;;;;20.93;43.55;102608.56;7255201;19;154384;-57
2022/12/01 12:23:09;;;;;;;;;;;;;;;20.93;43.51;102614.19;7259298;19;154079;-57
2022/12/01 12:25:35;;;;;;;;;;;;;;;20.92;43.48;102611.66;7258418;19;154476;-57
2022/12/01 12:28:15;;;;;;;;;;;;;;;20.92;43.69;102606.88;7259676;19;154037;-57
2022/12/01 12:30:50;;;;;;;;;;;;;;;20.92;43.78;102606.88;7256048;19;153718;-57
2022/12/01 12:33:35;;;;;;;;;;;;;;;20.88;43.56;102604.88;7260822;19;154372;-57
2022/12/01 12:36:28;;;;;;;;;;;;;;;20.88;43.59;102604.88;7260613;19;154394;-56
2022/12/01 12:39:07;;;;;;;;;;;;;;;20.85;43.49;102597.81;7266979;19;153486;-56
2022/12/01 12:41:45;;;;;;;;;;;;;;;20.84;43.73;102598.97;7257942;19;153033;-57
2022/12/01 12:44:22;;;;;;;;;;;;;;;20.82;43.91;102599.22;7253373;19;155687;-57
2022/12/01 12:46:55;;;;;;;;;;;;;;;20.81;43.70;102591.03;7256141;19;153913;-57
2022/12/01 12:49:27;;;;;;;;;;;;;;;20.80;43.70;102583.75;7260457;19;154187;-56